createdAt,value
2017-06-13T00:04:46.356Z,30.70
2017-06-13T00:07:25.761Z,30.70
2017-06-13T00:10:05.786Z,32.37
2017-06-13T00:18:10.782Z,31.40
2017-06-13T00:29:05.005Z,28.90
2017-06-13T00:34:30.744Z,30.57
2017-06-13T00:48:05.030Z,28.37
2017-06-13T00:53:35.289Z,27.40
2017-06-13T00:56:20.666Z,28.80
2017-06-13T01:14:48.330Z,29.20
2017-06-13T01:25:30.074Z,29.83
2017-06-13T01:30:54.616Z,26.60
2017-06-13T01:39:03.782Z,26.33
2017-06-13T01:41:43.362Z,27.10
2017-06-13T01:44:23.190Z,27.23
2017-06-13T01:47:08.473Z,27.10
2017-06-13T01:57:43.813Z,27.30
2017-06-13T02:05:46.308Z,26.40
2017-06-13T02:08:25.610Z,25.03
2017-06-13T02:13:44.026Z,24.40
2017-06-13T02:16:17.867Z,22.80
2017-06-13T02:35:26.622Z,23.00
2017-06-13T02:40:40.567Z,22.83
2017-06-13T02:45:47.522Z,22.33
2017-06-13T03:07:30.339Z,21.63
2017-06-13T03:20:58.291Z,19.40
2017-06-13T03:23:32.977Z,19.60
2017-06-13T03:37:05.819Z,18.10
2017-06-13T03:39:45.252Z,19.57
2017-06-13T03:42:30.711Z,17.67
2017-06-13T03:50:28.802Z,16.20
2017-06-13T03:55:58.330Z,16.17
2017-06-13T03:58:31.958Z,14.13
2017-06-13T04:09:25.926Z,14.93
2017-06-13T04:12:11.182Z,14.57
2017-06-13T04:19:56.604Z,13.93
2017-06-13T04:25:08.857Z,15.80
2017-06-13T04:36:07.446Z,14.20
2017-06-13T04:41:37.210Z,13.20
2017-06-13T04:52:18.974Z,11.37
2017-06-13T05:00:22.983Z,10.73
2017-06-13T05:02:56.738Z,12.20
2017-06-13T05:05:36.050Z,11.13
2017-06-13T05:18:58.754Z,10.68
2017-06-13T05:46:10.630Z,11.43
2017-06-13T05:51:31.419Z,10.57
2017-06-13T05:54:17.031Z,10.23
2017-06-13T05:57:02.585Z,10.73
2017-06-13T06:10:23.805Z,11.13
2017-06-13T06:13:09.098Z,12.10
2017-06-13T06:18:44.830Z,11.90
2017-06-13T06:24:08.678Z,12.20
2017-06-13T06:26:42.330Z,10.50
2017-06-13T06:34:50.902Z,8.83
2017-06-13T06:48:13.678Z,8.50
2017-06-13T06:56:10.546Z,9.35
2017-06-13T07:06:57.586Z,9.38
2017-06-13T07:09:25.526Z,10.30
2017-06-13T07:17:40.054Z,9.30
2017-06-13T07:20:08.019Z,9.00
2017-06-13T07:33:41.626Z,8.30
2017-06-13T07:38:59.577Z,7.47
2017-06-13T07:44:24.908Z,7.40
2017-06-13T07:47:10.159Z,8.83
2017-06-13T07:49:55.682Z,8.43
2017-06-13T07:52:29.987Z,8.20
2017-06-13T07:57:44.256Z,8.07
2017-06-13T08:02:57.566Z,9.63
2017-06-13T08:08:17.405Z,9.17
2017-06-13T08:10:58.074Z,8.80
2017-06-13T08:13:31.680Z,9.10
2017-06-13T08:19:01.462Z,8.93
2017-06-13T08:24:27.354Z,8.60
2017-06-13T08:27:12.682Z,9.30
2017-06-13T08:35:17.605Z,8.43
2017-06-13T08:37:51.254Z,9.40
2017-06-13T08:40:24.957Z,8.93
2017-06-13T08:48:45.301Z,8.80
2017-06-13T08:51:13.285Z,8.10
2017-06-13T08:53:41.280Z,8.87
2017-06-13T08:56:09.446Z,10.10
2017-06-13T08:58:37.378Z,9.77
2017-06-13T09:01:06.162Z,9.20
2017-06-13T09:03:34.089Z,9.43
2017-06-13T09:06:02.065Z,7.80
2017-06-13T09:08:30.760Z,8.80
2017-06-13T09:10:58.793Z,8.90
2017-06-13T09:13:26.828Z,8.70
2017-06-13T09:15:54.900Z,8.73
2017-06-13T09:18:22.938Z,9.50
2017-06-13T09:20:50.881Z,9.83
2017-06-13T09:23:19.044Z,9.80
2017-06-13T09:25:47.133Z,9.23
2017-06-13T09:28:15.181Z,9.10
2017-06-13T09:30:43.357Z,9.40
2017-06-13T09:33:11.344Z,8.70
2017-06-13T09:35:39.432Z,9.00
2017-06-13T09:38:07.636Z,9.87
2017-06-13T09:40:35.873Z,9.40
2017-06-13T09:43:04.116Z,9.43
2017-06-13T09:45:32.676Z,9.83
2017-06-13T09:48:01.264Z,8.33
2017-06-13T09:50:29.344Z,9.40
2017-06-13T09:52:57.601Z,9.93
2017-06-13T09:55:26.359Z,9.13
2017-06-13T09:57:54.444Z,9.40
2017-06-13T10:00:22.520Z,8.90
2017-06-13T10:02:50.457Z,9.23
2017-06-13T10:05:18.409Z,9.10
2017-06-13T10:07:46.492Z,10.03
2017-06-13T10:10:14.493Z,10.50
2017-06-13T10:25:32.665Z,9.50
2017-06-13T10:28:01.205Z,10.63
2017-06-13T10:30:29.293Z,9.60
2017-06-13T10:32:57.928Z,10.67
2017-06-13T10:35:26.063Z,8.93
2017-06-13T10:37:54.153Z,8.40
2017-06-13T10:40:22.389Z,10.10
2017-06-13T10:42:50.501Z,9.77
2017-06-13T10:45:18.613Z,8.53
2017-06-13T10:47:46.824Z,8.83
2017-06-13T10:50:14.902Z,10.00
2017-06-13T10:52:43.045Z,9.17
2017-06-13T10:55:11.341Z,9.27
2017-06-13T10:57:39.490Z,9.70
2017-06-13T11:00:07.885Z,10.43
2017-06-13T11:02:36.306Z,9.60
2017-06-13T11:05:04.392Z,8.73
2017-06-13T11:07:32.501Z,9.50
2017-06-13T11:10:00.772Z,10.50
2017-06-13T11:12:28.872Z,10.03
2017-06-13T11:14:57.039Z,9.50
2017-06-13T11:17:25.330Z,9.60
2017-06-13T11:19:53.441Z,8.93
2017-06-13T11:22:21.549Z,8.70
2017-06-13T11:24:49.777Z,10.43
2017-06-13T11:27:17.888Z,10.43
2017-06-13T11:29:46.022Z,9.13
2017-06-13T11:32:14.267Z,9.97
2017-06-13T11:34:42.373Z,10.57
2017-06-13T11:37:10.573Z,9.93
2017-06-13T11:39:38.788Z,10.87
2017-06-13T11:42:06.897Z,8.47
2017-06-13T11:44:35.108Z,9.03
2017-06-13T11:47:03.356Z,11.20
2017-06-13T11:49:31.512Z,9.20
2017-06-13T11:51:59.688Z,9.00
2017-06-13T11:54:27.948Z,10.30
2017-06-13T11:56:56.077Z,9.87
2017-06-13T11:59:24.188Z,9.80
2017-06-13T12:01:52.548Z,9.60
2017-06-13T12:04:20.732Z,9.00
2017-06-13T12:06:48.832Z,9.57
2017-06-13T12:09:17.088Z,10.27
2017-06-13T12:11:45.173Z,10.13
2017-06-13T12:14:13.399Z,10.80
2017-06-13T12:16:41.625Z,9.53
2017-06-13T12:19:09.737Z,10.63
2017-06-13T12:21:37.845Z,9.63
2017-06-13T12:24:06.542Z,10.03
2017-06-13T12:26:34.869Z,9.27
2017-06-13T12:29:02.999Z,10.43
2017-06-13T12:31:31.403Z,10.00
2017-06-13T12:33:59.610Z,9.10
2017-06-13T12:36:27.862Z,10.93
2017-06-13T12:38:56.117Z,9.70
2017-06-13T12:41:25.663Z,9.40
2017-06-13T12:43:53.765Z,10.10
2017-06-13T12:46:22.569Z,10.37
2017-06-13T12:48:51.053Z,9.43
2017-06-13T12:51:19.532Z,10.00
2017-06-13T12:53:48.092Z,11.47
2017-06-13T12:56:16.673Z,11.07
2017-06-13T12:58:45.260Z,10.73
2017-06-13T13:01:13.481Z,9.93
2017-06-13T13:03:41.712Z,11.23
2017-06-13T13:06:10.464Z,10.30
2017-06-13T13:08:39.932Z,8.90
2017-06-13T13:11:08.049Z,11.07
2017-06-13T13:13:36.569Z,9.00
2017-06-13T13:16:05.252Z,11.03
2017-06-13T13:18:33.935Z,11.10
2017-06-13T13:21:02.401Z,10.60
2017-06-13T13:23:31.216Z,10.83
2017-06-13T13:25:59.896Z,11.10
2017-06-13T13:28:28.577Z,10.87
2017-06-13T13:30:57.228Z,10.47
2017-06-13T13:33:25.344Z,12.47
2017-06-13T13:35:53.453Z,12.67
2017-06-13T13:38:22.208Z,11.03
2017-06-13T13:40:50.317Z,10.97
2017-06-13T13:43:18.796Z,12.33
2017-06-13T13:45:47.549Z,10.87
2017-06-13T13:48:15.625Z,12.13
2017-06-13T13:50:43.772Z,10.60
2017-06-13T13:53:12.995Z,12.03
2017-06-13T13:55:41.084Z,10.90
2017-06-13T13:58:09.689Z,10.83
2017-06-13T14:00:38.304Z,9.70
2017-06-13T14:03:07.741Z,10.40
2017-06-13T14:05:36.314Z,11.20
2017-06-13T14:08:04.844Z,10.93
2017-06-13T14:10:32.944Z,11.63
2017-06-13T14:13:02.358Z,11.10
2017-06-13T14:15:30.568Z,10.63
2017-06-13T14:17:58.640Z,11.43
2017-06-13T14:20:26.724Z,10.40
2017-06-13T14:22:54.992Z,11.60
2017-06-13T14:25:23.083Z,11.70
2017-06-13T14:27:51.160Z,11.27
2017-06-13T14:30:19.372Z,10.90
2017-06-13T14:32:48.721Z,11.27
2017-06-13T14:35:17.508Z,11.63
2017-06-13T14:37:45.713Z,11.47
2017-06-13T14:40:14.297Z,11.97
2017-06-13T14:42:42.380Z,12.43
2017-06-13T14:45:11.233Z,9.80
2017-06-13T14:47:39.844Z,11.90
2017-06-13T14:50:08.273Z,9.80
2017-06-13T14:52:36.985Z,11.97
2017-06-13T14:55:05.601Z,11.23
2017-06-13T14:57:34.028Z,10.60
2017-06-13T15:00:02.265Z,10.97
2017-06-13T15:02:31.017Z,12.10
2017-06-13T15:04:59.428Z,11.50
2017-06-13T15:07:28.188Z,11.77
2017-06-13T15:09:56.941Z,12.00
2017-06-13T15:12:26.281Z,11.50
2017-06-13T15:14:55.816Z,12.30
2017-06-13T15:17:24.373Z,10.70
2017-06-13T15:19:53.060Z,11.53
2017-06-13T15:22:21.917Z,12.43
2017-06-13T15:24:50.304Z,12.07
2017-06-13T15:27:18.844Z,13.00
2017-06-13T15:29:47.670Z,12.53
2017-06-13T15:32:16.284Z,12.10
2017-06-13T15:34:45.796Z,12.03
2017-06-13T15:37:14.349Z,12.03
2017-06-13T15:39:42.892Z,12.83
2017-06-13T15:42:11.553Z,10.97
2017-06-13T15:44:39.785Z,11.00
2017-06-13T15:47:09.009Z,11.87
2017-06-13T15:49:38.665Z,12.57
2017-06-13T15:52:07.237Z,11.90
2017-06-13T15:54:35.807Z,11.70
2017-06-13T15:57:04.457Z,11.67
2017-06-13T15:59:33.901Z,12.00
2017-06-13T16:02:02.448Z,13.17
2017-06-13T16:04:30.893Z,13.20
2017-06-13T16:06:59.096Z,11.90
2017-06-13T16:09:28.545Z,13.60
2017-06-13T16:11:57.226Z,12.17
2017-06-13T16:14:25.776Z,13.43
2017-06-13T16:16:53.864Z,12.80
2017-06-13T16:19:21.957Z,12.27
2017-06-13T16:21:50.250Z,11.87
2017-06-13T16:24:18.332Z,12.17
2017-06-13T16:26:46.396Z,12.83
2017-06-13T16:29:14.596Z,13.37
2017-06-13T16:31:43.242Z,12.20
2017-06-13T16:34:12.757Z,13.30
2017-06-13T16:36:41.364Z,12.60
2017-06-13T16:39:09.925Z,11.80
2017-06-13T16:41:38.003Z,12.33
2017-06-13T16:44:06.641Z,13.33
2017-06-13T16:46:34.701Z,12.87
2017-06-13T16:49:02.768Z,11.70
2017-06-13T16:51:31.011Z,13.30
2017-06-13T16:53:59.088Z,13.63
2017-06-13T16:56:27.180Z,12.27
2017-06-13T16:58:55.420Z,12.93
2017-06-13T17:01:23.497Z,14.23
2017-06-13T17:03:51.580Z,13.43
2017-06-13T17:06:20.265Z,12.70
2017-06-13T17:08:48.345Z,12.97
2017-06-13T17:11:16.593Z,13.73
2017-06-13T17:13:44.828Z,12.77
2017-06-13T17:16:12.925Z,14.40
2017-06-13T17:18:41.008Z,12.53
2017-06-13T17:21:09.828Z,12.70
2017-06-13T17:23:38.478Z,13.10
2017-06-13T17:26:07.165Z,13.10
2017-06-13T17:28:36.836Z,14.10
2017-06-13T17:31:04.933Z,12.57
2017-06-13T17:33:34.281Z,12.83
2017-06-13T17:36:03.973Z,12.23
2017-06-13T17:38:32.824Z,13.97
2017-06-13T17:41:01.338Z,12.60
2017-06-13T17:43:30.021Z,13.60
2017-06-13T17:45:59.324Z,12.00
2017-06-13T17:48:27.936Z,14.03
2017-06-13T17:50:56.741Z,12.50
2017-06-13T17:53:26.042Z,13.83
2017-06-13T17:55:54.237Z,13.80
2017-06-13T17:58:22.889Z,15.47
2017-06-13T18:00:51.649Z,12.90
2017-06-13T18:03:20.953Z,13.40
2017-06-13T18:05:50.576Z,12.73
2017-06-13T18:08:19.429Z,13.00
2017-06-13T18:10:47.877Z,14.43
2017-06-13T18:13:16.829Z,13.43
2017-06-13T18:15:46.184Z,13.90
2017-06-13T18:18:14.816Z,13.87
2017-06-13T18:20:43.164Z,13.80
2017-06-13T18:23:11.832Z,13.80
2017-06-13T18:25:40.117Z,13.07
2017-06-13T18:28:08.953Z,14.30
2017-06-13T18:30:38.249Z,13.63
2017-06-13T18:33:06.454Z,13.70
2017-06-13T18:35:34.743Z,13.70
2017-06-13T18:38:02.897Z,13.97
2017-06-13T18:40:31.060Z,14.40
2017-06-13T18:42:59.376Z,13.37
2017-06-13T18:45:27.596Z,13.30
2017-06-13T18:47:55.805Z,14.40
2017-06-13T18:50:24.129Z,13.63
2017-06-13T18:52:52.325Z,13.73
2017-06-13T18:55:20.921Z,13.80
2017-06-13T18:57:49.357Z,12.97
2017-06-13T19:00:17.842Z,13.97
2017-06-13T19:02:45.996Z,13.90
2017-06-13T19:05:14.933Z,14.30
2017-06-13T19:07:43.690Z,14.73
2017-06-13T19:10:11.900Z,14.10
2017-06-13T19:12:40.788Z,14.00
2017-06-13T19:15:09.353Z,13.67
2017-06-13T19:17:37.509Z,15.83
2017-06-13T19:20:05.853Z,17.30
2017-06-13T19:22:34.024Z,19.60
2017-06-13T19:25:09.010Z,19.80
2017-06-13T19:27:37.189Z,19.27
2017-06-13T19:30:05.410Z,18.30
2017-06-13T19:32:33.692Z,18.13
2017-06-13T19:35:01.875Z,19.13
2017-06-13T19:37:30.061Z,19.33
2017-06-13T19:39:58.332Z,18.13
2017-06-13T19:42:26.507Z,19.63
2017-06-13T19:44:54.668Z,18.77
2017-06-13T19:47:22.969Z,18.93
2017-06-13T19:49:51.764Z,19.63
2017-06-13T19:52:20.609Z,18.07
2017-06-13T19:54:49.501Z,18.63
2017-06-13T19:57:18.105Z,20.77
2017-06-13T19:59:47.640Z,20.17
2017-06-13T20:02:16.449Z,21.67
2017-06-13T20:04:45.031Z,20.57
2017-06-13T20:07:13.880Z,21.47
2017-06-13T20:09:43.535Z,20.80
2017-06-13T20:12:13.119Z,20.07
2017-06-13T20:14:42.017Z,20.50
2017-06-13T20:17:10.477Z,19.83
2017-06-13T20:19:40.057Z,19.57
2017-06-13T20:22:09.002Z,18.97
2017-06-13T20:24:38.085Z,19.93
2017-06-13T20:27:12.640Z,20.40
2017-06-13T20:29:42.421Z,19.77
2017-06-13T20:32:11.277Z,19.67
2017-06-13T20:34:39.928Z,20.97
2017-06-13T20:37:08.245Z,19.67
2017-06-13T20:39:37.029Z,20.67
2017-06-13T20:42:06.201Z,20.30
2017-06-13T20:44:35.225Z,20.13
2017-06-13T20:47:03.376Z,18.27
2017-06-13T20:49:32.009Z,19.40
2017-06-13T20:52:01.454Z,18.67
2017-06-13T20:54:30.147Z,19.67
2017-06-13T20:56:58.865Z,21.07
2017-06-13T20:59:27.809Z,18.00
2017-06-13T21:01:56.316Z,18.57
2017-06-13T21:04:24.844Z,18.60
2017-06-13T21:06:54.302Z,18.03
2017-06-13T21:09:22.941Z,17.73
2017-06-13T21:11:52.186Z,16.37
2017-06-13T21:14:21.137Z,16.27
2017-06-13T21:16:49.321Z,15.67
2017-06-13T21:19:17.613Z,16.77
2017-06-13T21:21:45.961Z,15.10
2017-06-13T21:24:14.549Z,16.03
2017-06-13T21:26:43.752Z,15.50
2017-06-13T21:29:12.058Z,17.10
2017-06-13T21:31:40.217Z,15.83
2017-06-13T21:34:08.889Z,17.70
2017-06-13T21:36:38.346Z,15.70
2017-06-13T21:39:06.996Z,17.10
2017-06-13T21:41:35.172Z,16.53
2017-06-13T21:44:03.489Z,19.37
2017-06-13T21:46:31.677Z,25.60
2017-06-13T21:48:59.865Z,31.10
2017-06-13T21:51:28.152Z,29.43
2017-06-13T21:53:56.216Z,30.83
2017-06-13T21:56:24.316Z,29.13
2017-06-13T21:58:52.518Z,28.40
2017-06-13T22:01:20.605Z,25.20
2017-06-13T22:03:48.709Z,23.77
2017-06-13T22:06:16.944Z,22.77
2017-06-13T22:08:45.037Z,19.43
2017-06-13T22:11:13.152Z,19.40
2017-06-13T22:13:42.633Z,20.97
2017-06-13T22:16:10.755Z,19.37
2017-06-13T22:18:39.364Z,23.73
2017-06-13T22:21:07.924Z,24.70
2017-06-13T22:23:36.023Z,28.60
2017-06-13T22:26:04.609Z,30.47
2017-06-13T22:28:33.496Z,31.47
2017-06-13T22:31:02.145Z,32.43
2017-06-13T22:33:30.211Z,32.43
2017-06-13T22:35:59.693Z,33.33
2017-06-13T22:38:28.274Z,31.50
2017-06-13T22:40:57.100Z,30.07
2017-06-13T22:43:26.549Z,29.63
2017-06-13T22:45:55.297Z,26.63
2017-06-13T22:48:23.684Z,23.97
2017-06-13T22:50:52.402Z,24.13
2017-06-13T22:53:21.013Z,21.70
2017-06-13T22:55:49.736Z,21.73
2017-06-13T22:58:19.184Z,20.40
2017-06-13T23:00:47.725Z,21.13
2017-06-13T23:03:17.093Z,20.63
2017-06-13T23:05:45.920Z,20.27
2017-06-13T23:08:14.484Z,21.27
2017-06-13T23:10:43.024Z,20.23
2017-06-13T23:13:11.813Z,21.17
2017-06-13T23:15:39.916Z,20.80
2017-06-13T23:18:08.002Z,22.90
2017-06-13T23:20:36.665Z,23.13
2017-06-13T23:23:05.260Z,24.50
2017-06-13T23:25:33.920Z,23.30
2017-06-13T23:28:02.713Z,22.00
2017-06-13T23:30:31.392Z,23.93
2017-06-13T23:32:59.910Z,21.20
2017-06-13T23:35:28.164Z,24.13
2017-06-13T23:37:56.256Z,25.07
2017-06-13T23:40:24.917Z,23.47
2017-06-13T23:42:53.770Z,25.17
2017-06-13T23:45:21.845Z,25.97
2017-06-13T23:47:50.491Z,25.80
2017-06-13T23:50:18.704Z,23.93
2017-06-13T23:52:46.792Z,27.07
2017-06-13T23:55:14.849Z,28.37
2017-06-13T23:57:43.101Z,31.30
